createdAt,value
2023-12-07T00:00:30.038Z,31.42
2023-12-07T00:03:18.827Z,29.23
2023-12-07T00:05:48.094Z,30.10
2023-12-07T00:08:16.578Z,28.75
2023-12-07T00:10:45.323Z,30.67
2023-12-07T00:13:13.926Z,29.30
2023-12-07T00:15:42.979Z,29.90
2023-12-07T00:18:11.441Z,29.70
2023-12-07T00:20:40.759Z,31.08
2023-12-07T00:23:09.024Z,31.13
2023-12-07T00:25:38.745Z,30.20
2023-12-07T00:28:07.013Z,30.88
2023-12-07T00:30:35.631Z,29.98
2023-12-07T00:33:04.409Z,29.50
2023-12-07T00:35:33.438Z,29.40
2023-12-07T00:38:02.077Z,29.67
2023-12-07T00:40:31.084Z,29.00
2023-12-07T00:42:59.722Z,28.65
2023-12-07T00:45:28.664Z,29.33
2023-12-07T00:47:57.027Z,27.65
2023-12-07T00:50:26.025Z,26.92
2023-12-07T00:52:54.389Z,29.25
2023-12-07T00:55:23.058Z,29.80
2023-12-07T00:57:51.530Z,30.95
2023-12-07T01:00:20.325Z,29.10
2023-12-07T01:02:48.620Z,29.02
2023-12-07T01:05:18.125Z,28.85
2023-12-07T01:07:46.541Z,29.08
2023-12-07T01:10:15.562Z,27.13
2023-12-07T01:12:43.903Z,28.52
2023-12-07T01:15:12.665Z,27.88
2023-12-07T01:17:41.141Z,28.17
2023-12-07T01:20:13.914Z,28.77
2023-12-07T01:22:42.997Z,27.10
2023-12-07T01:25:11.822Z,29.23
2023-12-07T01:27:40.417Z,29.80
2023-12-07T01:30:09.552Z,27.80
2023-12-07T01:32:37.911Z,29.08
2023-12-07T01:35:07.309Z,28.25
2023-12-07T01:37:36.974Z,27.95
2023-12-07T01:40:12.330Z,27.67
2023-12-07T01:42:41.179Z,28.45
2023-12-07T01:45:09.873Z,28.40
2023-12-07T01:47:39.581Z,28.67
2023-12-07T01:50:09.615Z,28.15
2023-12-07T01:52:44.391Z,29.08
2023-12-07T01:55:14.494Z,28.33
2023-12-07T01:57:45.760Z,28.40
2023-12-07T02:00:15.541Z,29.25
2023-12-07T02:02:46.617Z,26.60
2023-12-07T02:05:15.936Z,27.58
2023-12-07T02:07:45.085Z,28.63
2023-12-07T02:10:17.215Z,27.45
2023-12-07T02:12:46.723Z,27.75
2023-12-07T02:15:15.755Z,27.70
2023-12-07T02:17:59.376Z,27.02
2023-12-07T02:20:36.476Z,26.88
2023-12-07T02:23:08.394Z,26.92
2023-12-07T02:26:04.357Z,27.65
2023-12-07T02:28:32.686Z,27.23
2023-12-07T02:31:01.323Z,28.55
2023-12-07T02:33:30.110Z,27.58
2023-12-07T02:35:58.810Z,28.25
2023-12-07T02:38:29.618Z,29.95
2023-12-07T02:41:00.263Z,30.67
2023-12-07T02:43:29.492Z,30.98
2023-12-07T02:45:58.352Z,32.00
2023-12-07T02:48:27.529Z,32.83
2023-12-07T02:50:56.398Z,29.40
2023-12-07T02:53:24.799Z,29.83
2023-12-07T02:55:53.511Z,30.15
2023-12-07T02:58:21.862Z,29.02
2023-12-07T03:00:51.121Z,29.30
2023-12-07T03:03:19.448Z,28.60
2023-12-07T03:05:48.071Z,33.17
2023-12-07T03:08:16.582Z,31.95
2023-12-07T03:10:45.118Z,32.97
2023-12-07T03:13:13.498Z,32.53
2023-12-07T03:15:42.608Z,29.80
2023-12-07T03:18:11.469Z,30.65
2023-12-07T03:20:40.113Z,30.15
2023-12-07T03:23:08.490Z,29.25
2023-12-07T03:25:37.297Z,29.42
2023-12-07T03:28:05.868Z,30.25
2023-12-07T03:30:34.945Z,31.42
2023-12-07T03:33:03.337Z,31.05
2023-12-07T03:35:32.183Z,29.67
2023-12-07T03:38:00.590Z,32.42
2023-12-07T03:40:29.323Z,31.52
2023-12-07T03:42:57.782Z,29.40
2023-12-07T03:45:26.969Z,29.65
2023-12-07T03:47:55.329Z,28.73
2023-12-07T03:50:23.989Z,28.83
2023-12-07T03:52:52.392Z,28.27
2023-12-07T03:55:21.087Z,28.13
2023-12-07T03:57:49.513Z,29.10
2023-12-07T04:00:18.292Z,29.15
2023-12-07T04:02:46.536Z,30.25
2023-12-07T04:05:15.840Z,28.17
2023-12-07T04:07:44.209Z,29.70
2023-12-07T04:10:13.081Z,30.40
2023-12-07T04:12:41.752Z,29.95
2023-12-07T04:15:11.064Z,31.20
2023-12-07T04:17:39.405Z,31.55
2023-12-07T04:20:08.976Z,33.38
2023-12-07T04:22:37.743Z,32.60
2023-12-07T04:25:07.419Z,33.00
2023-12-07T04:27:35.675Z,36.20
2023-12-07T04:30:06.371Z,35.13
2023-12-07T04:32:34.734Z,30.60
2023-12-07T04:35:03.433Z,29.83
2023-12-07T04:37:31.816Z,29.77
2023-12-07T04:40:00.480Z,29.73
2023-12-07T04:42:28.763Z,30.08
2023-12-07T04:44:57.466Z,30.63
2023-12-07T04:47:26.110Z,31.65
2023-12-07T04:49:55.031Z,32.13
2023-12-07T04:52:23.688Z,33.63
2023-12-07T04:54:52.529Z,32.85
2023-12-07T04:57:20.911Z,33.05
2023-12-07T04:59:49.866Z,32.47
2023-12-07T05:02:19.849Z,32.78
2023-12-07T05:04:48.719Z,32.78
2023-12-07T05:07:18.372Z,38.80
2023-12-07T05:09:47.387Z,43.97
2023-12-07T05:12:16.125Z,46.03
2023-12-07T05:14:44.960Z,36.00
2023-12-07T05:17:13.306Z,32.00
2023-12-07T05:19:42.307Z,30.70
2023-12-07T05:22:11.325Z,30.00
2023-12-07T05:24:40.062Z,30.15
2023-12-07T05:27:08.469Z,31.23
2023-12-07T05:29:39.743Z,31.25
2023-12-07T05:32:08.241Z,31.27
2023-12-07T05:34:37.220Z,30.38
2023-12-07T05:37:05.744Z,30.55
2023-12-07T05:39:34.782Z,29.05
2023-12-07T05:42:05.680Z,30.05
2023-12-07T05:44:34.804Z,31.25
2023-12-07T05:47:03.310Z,32.10
2023-12-07T05:49:32.069Z,34.72
2023-12-07T05:52:00.688Z,40.28
2023-12-07T05:54:29.488Z,41.65
2023-12-07T05:56:57.844Z,41.75
2023-12-07T05:59:27.409Z,35.70
2023-12-07T06:01:55.894Z,33.28
2023-12-07T06:04:24.630Z,33.13
2023-12-07T06:06:53.129Z,34.28
2023-12-07T06:09:21.883Z,33.63
2023-12-07T06:11:50.278Z,32.83
2023-12-07T06:14:19.086Z,32.28
2023-12-07T06:16:47.675Z,29.50
2023-12-07T06:19:19.621Z,29.27
2023-12-07T06:21:48.406Z,28.35
2023-12-07T06:24:17.067Z,30.15
2023-12-07T06:26:45.758Z,29.73
2023-12-07T06:29:15.189Z,29.45
2023-12-07T06:31:46.777Z,29.10
2023-12-07T06:34:17.903Z,28.83
2023-12-07T06:36:46.673Z,29.90
2023-12-07T06:39:15.775Z,28.90
2023-12-07T06:41:44.406Z,31.05
2023-12-07T06:44:13.252Z,29.52
2023-12-07T06:46:42.013Z,29.88
2023-12-07T06:49:11.314Z,29.27
2023-12-07T06:51:40.077Z,29.40
2023-12-07T06:54:09.002Z,31.65
2023-12-07T06:56:37.275Z,31.17
2023-12-07T06:59:06.207Z,31.63
2023-12-07T07:01:35.093Z,31.30
2023-12-07T07:04:04.007Z,31.83
2023-12-07T07:06:32.787Z,30.83
2023-12-07T07:09:01.714Z,29.30
2023-12-07T07:11:30.275Z,34.35
2023-12-07T07:13:59.053Z,35.40
2023-12-07T07:16:27.525Z,36.83
2023-12-07T07:18:56.307Z,38.63
2023-12-07T07:21:24.859Z,38.30
2023-12-07T07:23:53.711Z,36.25
2023-12-07T07:26:22.197Z,38.55
2023-12-07T07:28:51.584Z,37.08
2023-12-07T07:31:20.317Z,38.53
2023-12-07T07:33:49.429Z,32.85
2023-12-07T07:36:29.307Z,34.97
2023-12-07T07:38:58.255Z,34.47
2023-12-07T07:41:27.061Z,33.50
2023-12-07T07:43:56.650Z,38.42
2023-12-07T07:46:26.185Z,41.15
2023-12-07T07:48:56.760Z,43.38
2023-12-07T07:51:25.461Z,49.38
2023-12-07T07:53:56.973Z,46.75
2023-12-07T07:56:26.657Z,49.10
2023-12-07T07:58:55.516Z,46.03
2023-12-07T08:01:23.814Z,46.28
2023-12-07T08:03:52.681Z,39.50
2023-12-07T08:06:21.076Z,37.30
2023-12-07T08:08:51.011Z,35.08
2023-12-07T08:11:19.547Z,34.50
2023-12-07T08:13:49.296Z,32.15
2023-12-07T08:16:17.680Z,33.38
2023-12-07T08:18:46.260Z,33.15
2023-12-07T08:21:32.805Z,33.10
2023-12-07T08:24:01.446Z,32.08
2023-12-07T08:26:29.983Z,32.85
2023-12-07T08:28:59.244Z,32.25
2023-12-07T08:31:27.687Z,30.75
2023-12-07T08:33:56.966Z,28.77
2023-12-07T08:36:25.704Z,30.33
2023-12-07T08:38:55.460Z,34.60
2023-12-07T08:41:24.898Z,38.40
2023-12-07T08:43:53.775Z,33.75
2023-12-07T08:46:22.231Z,33.63
2023-12-07T08:48:50.959Z,30.48
2023-12-07T08:51:19.291Z,31.80
2023-12-07T08:53:50.784Z,30.77
2023-12-07T08:56:21.299Z,28.63
2023-12-07T08:58:50.168Z,30.67
2023-12-07T09:01:26.201Z,30.63
2023-12-07T09:04:01.708Z,28.48
2023-12-07T09:06:30.913Z,29.50
2023-12-07T09:08:59.758Z,30.38
2023-12-07T09:11:29.164Z,29.00
2023-12-07T09:13:58.664Z,28.13
2023-12-07T09:16:27.931Z,29.95
2023-12-07T09:18:57.235Z,29.10
2023-12-07T09:21:26.182Z,29.35
2023-12-07T09:23:55.089Z,32.38
2023-12-07T09:26:23.398Z,32.25
2023-12-07T09:28:53.830Z,30.02
2023-12-07T09:31:24.011Z,30.02
2023-12-07T09:33:55.296Z,30.70
2023-12-07T09:36:25.489Z,31.10
2023-12-07T09:38:54.414Z,30.45
2023-12-07T09:41:25.463Z,29.50
2023-12-07T09:43:54.253Z,31.38
2023-12-07T09:46:22.818Z,31.15
2023-12-07T09:48:52.452Z,32.70
2023-12-07T09:51:22.012Z,30.00
2023-12-07T09:53:54.650Z,27.42
2023-12-07T09:56:23.449Z,29.90
2023-12-07T09:58:52.408Z,30.30
2023-12-07T10:01:20.864Z,31.50
2023-12-07T10:03:49.906Z,35.05
2023-12-07T10:06:18.494Z,33.65
2023-12-07T10:08:48.563Z,33.30
2023-12-07T10:11:17.313Z,30.15
2023-12-07T10:13:46.359Z,28.45
2023-12-07T10:16:17.502Z,29.55
2023-12-07T10:18:47.032Z,30.73
2023-12-07T10:21:16.167Z,30.13
2023-12-07T10:23:49.071Z,30.98
2023-12-07T10:26:21.191Z,28.33
2023-12-07T10:28:56.271Z,27.38
2023-12-07T10:31:25.682Z,34.50
2023-12-07T10:33:55.311Z,30.95
2023-12-07T10:36:25.442Z,29.88
2023-12-07T10:38:54.925Z,29.65
2023-12-07T10:41:25.724Z,30.23
2023-12-07T10:43:59.967Z,30.63
2023-12-07T10:46:29.211Z,30.83
2023-12-07T10:49:05.093Z,27.77
2023-12-07T10:51:41.648Z,28.35
2023-12-07T10:54:15.628Z,27.48
2023-12-07T10:56:47.828Z,27.25
2023-12-07T10:59:23.927Z,33.80
2023-12-07T11:01:59.642Z,27.13
2023-12-07T11:04:30.843Z,30.17
2023-12-07T11:07:08.266Z,27.05
2023-12-07T11:09:43.956Z,25.23
2023-12-07T11:12:36.540Z,29.52
2023-12-07T11:15:06.728Z,28.40
2023-12-07T11:17:57.840Z,33.17
2023-12-07T11:20:48.152Z,25.17
2023-12-07T11:23:21.235Z,25.83
2023-12-07T11:25:52.166Z,33.17
2023-12-07T11:28:36.225Z,28.15
2023-12-07T11:31:05.278Z,28.98
2023-12-07T11:33:33.902Z,27.60
2023-12-07T11:36:10.697Z,25.85
2023-12-07T11:38:40.632Z,29.08
2023-12-07T11:41:11.189Z,29.52
2023-12-07T11:43:45.098Z,28.13
2023-12-07T11:46:15.549Z,29.55
2023-12-07T11:48:49.561Z,27.05
2023-12-07T11:51:19.203Z,28.20
2023-12-07T11:53:49.920Z,31.02
2023-12-07T11:56:22.908Z,30.00
2023-12-07T11:58:52.087Z,27.77
2023-12-07T12:05:16.187Z,32.88
2023-12-07T12:07:44.634Z,28.83
2023-12-07T12:10:14.171Z,28.60
2023-12-07T12:12:42.717Z,27.50
2023-12-07T12:15:11.884Z,25.98
2023-12-07T12:17:40.391Z,28.08
2023-12-07T12:20:11.838Z,27.25
2023-12-07T12:22:40.415Z,27.02
2023-12-07T12:25:09.927Z,28.90
2023-12-07T12:27:38.903Z,28.50
2023-12-07T12:30:08.362Z,27.33
2023-12-07T12:32:47.391Z,29.85
2023-12-07T12:35:16.801Z,30.63
2023-12-07T12:37:47.200Z,31.20
2023-12-07T12:40:20.098Z,35.25
2023-12-07T12:42:53.503Z,33.80
2023-12-07T12:45:23.747Z,30.70
2023-12-07T12:47:52.577Z,28.27
2023-12-07T12:50:42.040Z,27.58
2023-12-07T12:53:12.231Z,28.88
2023-12-07T12:55:42.821Z,30.98
2023-12-07T12:58:11.718Z,32.63
2023-12-07T13:00:42.353Z,33.13
2023-12-07T13:03:11.547Z,28.50
2023-12-07T13:05:40.778Z,29.40
2023-12-07T13:08:14.669Z,30.17
2023-12-07T13:10:43.978Z,30.20
2023-12-07T13:13:12.491Z,31.15
2023-12-07T13:15:41.253Z,30.45
2023-12-07T13:18:09.817Z,29.55
2023-12-07T13:20:49.398Z,31.08
2023-12-07T13:23:24.082Z,31.95
2023-12-07T13:25:53.043Z,31.73
2023-12-07T13:28:21.597Z,33.67
2023-12-07T13:30:54.230Z,35.28
2023-12-07T13:33:28.111Z,38.47
2023-12-07T13:36:05.285Z,33.97
2023-12-07T13:38:36.074Z,32.00
2023-12-07T13:41:05.132Z,31.35
2023-12-07T13:43:35.077Z,32.38
2023-12-07T13:46:03.946Z,31.73
2023-12-07T13:48:32.364Z,35.90
2023-12-07T13:51:01.049Z,40.97
2023-12-07T13:53:29.371Z,43.67
2023-12-07T13:56:02.865Z,41.50
2023-12-07T13:58:32.016Z,46.50
2023-12-07T14:01:00.679Z,47.35
2023-12-07T14:03:29.246Z,50.70
2023-12-07T14:05:58.943Z,39.25
2023-12-07T14:08:28.225Z,35.30
2023-12-07T14:10:56.953Z,38.17
2023-12-07T14:13:27.298Z,39.20
2023-12-07T14:16:02.807Z,37.47
2023-12-07T14:21:54.564Z,40.47
2023-12-07T14:24:28.084Z,40.72
2023-12-07T14:27:01.843Z,41.28
2023-12-07T14:30:53.734Z,39.50
2023-12-07T14:33:50.554Z,41.67
2023-12-07T14:37:39.699Z,42.05
2023-12-07T14:40:27.555Z,43.25
2023-12-07T14:42:55.928Z,44.30
2023-12-07T14:49:25.097Z,53.55
2023-12-07T14:52:55.004Z,55.05
2023-12-07T14:56:11.519Z,56.15
2023-12-07T15:00:01.022Z,48.55
2023-12-07T15:02:55.332Z,48.50
2023-12-07T15:05:23.913Z,53.30
2023-12-07T15:07:52.649Z,53.97
2023-12-07T15:10:21.132Z,49.45
2023-12-07T15:12:49.797Z,51.05
2023-12-07T15:15:19.388Z,49.90
2023-12-07T15:17:51.389Z,49.00
2023-12-07T15:22:49.101Z,43.00
2023-12-07T15:25:18.730Z,51.60
2023-12-07T15:27:48.443Z,60.63
2023-12-07T15:30:17.137Z,63.70
2023-12-07T15:32:55.017Z,62.20
2023-12-07T15:35:23.580Z,59.03
2023-12-07T15:38:18.445Z,59.00
2023-12-07T15:40:46.821Z,71.97
2023-12-07T15:43:15.494Z,64.47
2023-12-07T15:45:43.960Z,64.20
2023-12-07T15:48:16.505Z,63.65
2023-12-07T15:50:57.785Z,55.47
2023-12-07T15:53:26.765Z,51.60
2023-12-07T15:55:55.315Z,45.90
2023-12-07T15:58:24.093Z,44.78
2023-12-07T16:00:52.888Z,44.55
2023-12-07T16:03:21.816Z,41.13
2023-12-07T16:05:50.264Z,40.03
2023-12-07T16:15:40.394Z,41.05
2023-12-07T16:16:28.692Z,37.95
2023-12-07T16:19:11.552Z,40.72
2023-12-07T16:23:09.794Z,42.65
2023-12-07T16:25:59.435Z,46.03
2023-12-07T17:16:22.727Z,47.67
2023-12-07T17:17:13.920Z,48.20
2023-12-07T17:19:48.651Z,47.03
2023-12-07T17:22:29.093Z,50.97
2023-12-07T17:25:01.360Z,49.72
2023-12-07T17:27:29.790Z,50.97
2023-12-07T17:29:58.670Z,58.10
2023-12-07T17:32:28.081Z,78.38
2023-12-07T17:35:00.663Z,91.80
2023-12-07T17:37:29.171Z,93.28
2023-12-07T17:39:58.617Z,90.93
2023-12-07T17:42:27.307Z,87.00
2023-12-07T17:44:56.423Z,86.22
2023-12-07T17:47:27.732Z,91.40
2023-12-07T17:49:57.366Z,99.85
2023-12-07T17:52:25.620Z,93.03
2023-12-07T17:54:54.199Z,85.18
2023-12-07T17:57:22.703Z,85.03
2023-12-07T17:59:51.667Z,84.63
2023-12-07T18:02:20.048Z,80.15
2023-12-07T18:04:48.629Z,73.82
2023-12-07T18:07:22.897Z,71.18
2023-12-07T18:10:19.967Z,67.85
2023-12-07T18:12:48.555Z,69.22
2023-12-07T18:15:19.297Z,64.75
2023-12-07T18:17:55.041Z,59.45
2023-12-07T18:20:24.538Z,57.55
2023-12-07T18:23:21.501Z,50.55
2023-12-07T18:25:50.301Z,52.10
2023-12-07T18:28:19.709Z,52.70
2023-12-07T18:30:48.416Z,53.35
2023-12-07T18:33:16.963Z,49.25
2023-12-07T18:35:46.020Z,51.38
2023-12-07T18:38:14.610Z,50.90
2023-12-07T18:40:44.142Z,47.45
2023-12-07T18:43:13.797Z,40.72
2023-12-07T18:45:45.317Z,39.53
2023-12-07T18:48:14.101Z,38.15
2023-12-07T18:50:43.007Z,38.20
2023-12-07T18:53:11.361Z,38.10
2023-12-07T18:55:40.779Z,37.70
2023-12-07T18:58:09.049Z,39.05
2023-12-07T19:00:37.750Z,38.10
2023-12-07T19:03:06.253Z,39.45
2023-12-07T19:05:35.627Z,39.58
2023-12-07T19:08:04.109Z,39.60
2023-12-07T19:10:32.908Z,44.22
2023-12-07T19:13:02.520Z,42.55
2023-12-07T19:15:31.540Z,44.67
2023-12-07T19:18:01.658Z,47.80
2023-12-07T19:20:30.589Z,47.15
2023-12-07T19:23:00.161Z,48.35
2023-12-07T19:25:28.896Z,49.75
2023-12-07T19:27:57.450Z,51.80
2023-12-07T19:30:28.391Z,50.17
2023-12-07T19:33:01.441Z,54.28
2023-12-07T19:35:31.178Z,55.40
2023-12-07T19:37:59.645Z,52.75
2023-12-07T19:40:28.700Z,51.60
2023-12-07T19:43:37.595Z,51.00
2023-12-07T19:46:06.540Z,50.78
2023-12-07T19:48:45.996Z,55.13
2023-12-07T19:51:20.532Z,59.30
2023-12-07T19:53:49.350Z,64.50
2023-12-07T19:56:25.072Z,69.05
2023-12-07T19:58:56.635Z,68.22
2023-12-07T20:01:30.550Z,63.92
2023-12-07T20:04:01.388Z,61.88
2023-12-07T20:10:03.820Z,53.63
2023-12-07T20:12:48.522Z,49.30
2023-12-07T20:15:22.446Z,50.22
2023-12-07T20:20:18.707Z,46.67
2023-12-07T20:27:19.297Z,43.22
2023-12-07T20:30:00.942Z,45.78
2023-12-07T20:35:10.332Z,59.30
2023-12-07T20:36:02.199Z,41.40
2023-12-07T20:38:30.937Z,37.28
2023-12-07T20:41:00.020Z,36.50
2023-12-07T20:49:50.265Z,32.25
2023-12-07T20:52:20.697Z,33.42
2023-12-07T20:54:49.303Z,35.10
2023-12-07T20:57:20.222Z,35.40
2023-12-07T20:59:48.957Z,36.05
2023-12-07T21:02:23.883Z,40.78
2023-12-07T21:04:56.632Z,38.10
2023-12-07T21:07:32.735Z,38.45
2023-12-07T21:10:01.581Z,38.33
2023-12-07T21:12:30.611Z,40.92
2023-12-07T21:15:22.201Z,41.80
2023-12-07T21:17:50.976Z,44.03
2023-12-07T21:20:19.683Z,46.05
2023-12-07T21:22:49.684Z,42.85
2023-12-07T21:25:18.495Z,42.58
2023-12-07T21:27:50.936Z,39.55
2023-12-07T21:30:20.039Z,38.60
2023-12-07T21:32:49.318Z,38.83
2023-12-07T21:35:18.002Z,40.95
2023-12-07T21:37:47.368Z,43.58
2023-12-07T21:40:16.208Z,42.00
2023-12-07T21:42:46.261Z,44.17
2023-12-07T21:45:14.792Z,41.40
2023-12-07T21:47:43.714Z,41.75
2023-12-07T21:50:12.185Z,38.80
2023-12-07T21:53:06.252Z,40.65
2023-12-07T21:55:34.577Z,39.28
2023-12-07T21:58:03.676Z,40.17
2023-12-07T22:00:41.095Z,44.08
2023-12-07T22:03:10.455Z,43.03
2023-12-07T22:05:39.096Z,42.28
2023-12-07T22:08:07.989Z,41.17
2023-12-07T22:10:36.412Z,41.85
2023-12-07T22:13:05.334Z,40.00
2023-12-07T22:15:33.874Z,40.90
2023-12-07T22:18:02.938Z,41.25
2023-12-07T22:20:31.450Z,41.17
2023-12-07T22:23:00.561Z,39.88
2023-12-07T22:25:29.049Z,40.13
2023-12-07T22:27:59.950Z,36.90
2023-12-07T22:30:28.486Z,34.20
2023-12-07T22:32:57.581Z,34.92
2023-12-07T22:35:26.328Z,34.47
2023-12-07T22:37:54.980Z,33.40
2023-12-07T22:40:24.149Z,32.42
2023-12-07T22:42:56.720Z,33.13
2023-12-07T22:45:25.529Z,32.88
2023-12-07T22:47:54.303Z,30.75
2023-12-07T22:50:28.559Z,31.35
2023-12-07T22:56:29.992Z,32.88
2023-12-07T22:58:58.745Z,31.92
2023-12-07T23:01:27.232Z,31.02
2023-12-07T23:03:59.325Z,31.40
2023-12-07T23:06:28.092Z,30.27
2023-12-07T23:08:57.353Z,28.65
2023-12-07T23:11:25.632Z,29.33
2023-12-07T23:13:54.443Z,29.00
2023-12-07T23:16:26.360Z,28.23
2023-12-07T23:19:22.978Z,26.00
2023-12-07T23:21:51.734Z,26.98
2023-12-07T23:24:20.116Z,30.23
2023-12-07T23:26:48.932Z,29.05
2023-12-07T23:29:17.335Z,29.50
2023-12-07T23:31:46.499Z,27.65
2023-12-07T23:34:15.192Z,27.98
2023-12-07T23:36:44.153Z,26.67
2023-12-07T23:39:12.674Z,29.15
2023-12-07T23:41:41.636Z,27.70
2023-12-07T23:44:10.102Z,28.15
2023-12-07T23:46:39.368Z,28.15
2023-12-07T23:49:07.756Z,28.98
2023-12-07T23:51:37.727Z,29.65
2023-12-07T23:54:06.317Z,29.58
2023-12-07T23:56:35.024Z,30.50
2023-12-07T23:59:03.543Z,30.77
